Terminal Aerodrome Forecast
Issued by NWS

Home | Current Version | Previous Version | Text Only | Print | Product List | Glossary On
Versions: 1 2 3 4 5 6 7 8 9 10 11 12 13 14 15
000
FTUS41 KPBZ 252300
TAFBVI
TAF
KBVI 252334Z 2600/2624 03009KT 2SM -SN OVC007
      TEMPO 2600/2604 1/2SM SN OVC003
     FM260900 04007KT 2SM -SN BR OVC007
     FM262000 36006KT 3SM -SHSN OVC010
      AMD NOT SKED=

USA.gov is the U.S. government's official web portal to all federal, state and local government web resources and services.